sensor_id;sensor_type;location;lat;lon;timestamp;pressure;altitude;pressure_sealevel;temperature;humidity
29383;BME280;16365;51.598;7.668;2022-11-20T00:00:16;100612.66;;;3.68;47.52
29383;BME280;16365;51.598;7.668;2022-11-20T00:02:43;100614.59;;;3.68;47.75
29383;BME280;16365;51.598;7.668;2022-11-20T00:05:09;100616.50;;;3.67;47.39
29383;BME280;16365;51.598;7.668;2022-11-20T00:07:37;100615.97;;;3.65;47.83
29383;BME280;16365;51.598;7.668;2022-11-20T00:10:04;100610.78;;;3.64;47.71
29383;BME280;16365;51.598;7.668;2022-11-20T00:12:31;100619.00;;;3.64;47.32
29383;BME280;16365;51.598;7.668;2022-11-20T00:14:57;100614.59;;;3.63;47.54
29383;BME280;16365;51.598;7.668;2022-11-20T00:17:24;100619.25;;;3.62;47.88
29383;BME280;16365;51.598;7.668;2022-11-20T00:19:51;100615.72;;;3.61;47.34
29383;BME280;16365;51.598;7.668;2022-11-20T00:22:18;100617.34;;;3.63;47.75
29383;BME280;16365;51.598;7.668;2022-11-20T00:24:45;100614.59;;;3.63;47.48
29383;BME280;16365;51.598;7.668;2022-11-20T00:27:14;100622.00;;;3.62;47.41
29383;BME280;16365;51.598;7.668;2022-11-20T00:29:41;100614.06;;;3.60;47.21
29383;BME280;16365;51.598;7.668;2022-11-20T00:32:07;100616.00;;;3.60;47.64
29383;BME280;16365;51.598;7.668;2022-11-20T00:34:34;100615.19;;;3.59;47.59
29383;BME280;16365;51.598;7.668;2022-11-20T00:37:00;100611.63;;;3.59;47.62
29383;BME280;16365;51.598;7.668;2022-11-20T00:39:27;100610.81;;;3.58;47.52
29383;BME280;16365;51.598;7.668;2022-11-20T00:41:53;100614.63;;;3.57;47.37
29383;BME280;16365;51.598;7.668;2022-11-20T00:44:21;100620.97;;;3.58;47.86
29383;BME280;16365;51.598;7.668;2022-11-20T00:46:47;100615.47;;;3.58;47.60
29383;BME280;16365;51.598;7.668;2022-11-20T00:49:14;100620.13;;;3.57;47.52
29383;BME280;16365;51.598;7.668;2022-11-20T00:51:40;100623.97;;;3.56;47.31
29383;BME280;16365;51.598;7.668;2022-11-20T00:54:07;100612.47;;;3.54;47.68
29383;BME280;16365;51.598;7.668;2022-11-20T00:56:33;100612.75;;;3.53;47.46
29383;BME280;16365;51.598;7.668;2022-11-20T00:59:00;100611.41;;;3.50;47.33
29383;BME280;16365;51.598;7.668;2022-11-20T01:01:27;100620.72;;;3.49;47.46
29383;BME280;16365;51.598;7.668;2022-11-20T01:03:58;100627.31;;;3.48;47.98
29383;BME280;16365;51.598;7.668;2022-11-20T01:06:33;100632.25;;;3.46;47.68
29383;BME280;16365;51.598;7.668;2022-11-20T01:09:03;100628.97;;;3.49;47.96
29383;BME280;16365;51.598;7.668;2022-11-20T01:11:33;100626.44;;;3.53;48.11
29383;BME280;16365;51.598;7.668;2022-11-20T01:14:02;100628.63;;;3.56;48.52
29383;BME280;16365;51.598;7.668;2022-11-20T01:16:35;100623.94;;;3.61;48.68
29383;BME280;16365;51.598;7.668;2022-11-20T01:19:04;100620.06;;;3.68;48.54
29383;BME280;16365;51.598;7.668;2022-11-20T01:21:33;100628.50;;;3.76;48.68
29383;BME280;16365;51.598;7.668;2022-11-20T01:24:00;100623.53;;;3.83;48.54
29383;BME280;16365;51.598;7.668;2022-11-20T01:26:29;100624.00;;;3.91;48.31
29383;BME280;16365;51.598;7.668;2022-11-20T01:28:56;100623.97;;;3.96;48.32
29383;BME280;16365;51.598;7.668;2022-11-20T01:33:53;100613.16;;;4.09;48.52
29383;BME280;16365;51.598;7.668;2022-11-20T01:36:20;100621.09;;;4.16;48.38
29383;BME280;16365;51.598;7.668;2022-11-20T01:38:47;100607.53;;;4.25;48.50
29383;BME280;16365;51.598;7.668;2022-11-20T01:41:14;100606.97;;;4.28;48.46
29383;BME280;16365;51.598;7.668;2022-11-20T01:44:02;100618.41;;;4.35;48.17
29383;BME280;16365;51.598;7.668;2022-11-20T01:46:33;100610.97;;;4.41;48.68
29383;BME280;16365;51.598;7.668;2022-11-20T01:49:04;100606.25;;;4.46;48.50
29383;BME280;16365;51.598;7.668;2022-11-20T01:54:52;100601.78;;;4.55;48.64
29383;BME280;16365;51.598;7.668;2022-11-20T01:57:22;100590.75;;;4.60;48.05
29383;BME280;16365;51.598;7.668;2022-11-20T01:59:54;100587.94;;;4.66;48.57
29383;BME280;16365;51.598;7.668;2022-11-20T02:02:23;100586.75;;;4.72;48.62
29383;BME280;16365;51.598;7.668;2022-11-20T02:04:51;100582.63;;;4.74;48.31
29383;BME280;16365;51.598;7.668;2022-11-20T02:07:20;100576.25;;;4.79;48.45
29383;BME280;16365;51.598;7.668;2022-11-20T02:09:48;100558.06;;;4.83;48.33
29383;BME280;16365;51.598;7.668;2022-11-20T02:12:15;100571.22;;;4.86;48.17
29383;BME280;16365;51.598;7.668;2022-11-20T02:15:00;100568.41;;;4.91;47.89
29383;BME280;16365;51.598;7.668;2022-11-20T02:17:27;100571.66;;;4.93;47.85
29383;BME280;16365;51.598;7.668;2022-11-20T02:19:54;100563.66;;;4.97;47.99
29383;BME280;16365;51.598;7.668;2022-11-20T02:22:34;100564.19;;;4.99;47.51
29383;BME280;16365;51.598;7.668;2022-11-20T02:25:06;100565.22;;;5.03;47.86
29383;BME280;16365;51.598;7.668;2022-11-20T02:27:33;100568.22;;;5.06;47.77
29383;BME280;16365;51.598;7.668;2022-11-20T02:30:02;100561.59;;;5.07;47.80
29383;BME280;16365;51.598;7.668;2022-11-20T02:32:32;100566.81;;;5.09;47.78
29383;BME280;16365;51.598;7.668;2022-11-20T02:35:07;100558.25;;;5.10;47.73
29383;BME280;16365;51.598;7.668;2022-11-20T02:37:37;100562.38;;;5.13;47.50
29383;BME280;16365;51.598;7.668;2022-11-20T02:40:05;100569.19;;;5.15;47.83
29383;BME280;16365;51.598;7.668;2022-11-20T02:42:32;100564.50;;;5.16;47.56
29383;BME280;16365;51.598;7.668;2022-11-20T02:44:58;100563.38;;;5.17;47.55
29383;BME280;16365;51.598;7.668;2022-11-20T02:47:24;100576.53;;;5.20;47.73
29383;BME280;16365;51.598;7.668;2022-11-20T02:49:51;100581.75;;;5.22;48.17
29383;BME280;16365;51.598;7.668;2022-11-20T02:52:17;100571.28;;;5.24;47.89
29383;BME280;16365;51.598;7.668;2022-11-20T02:54:43;100578.66;;;5.28;47.64
29383;BME280;16365;51.598;7.668;2022-11-20T02:57:10;100567.03;;;5.31;47.90
29383;BME280;16365;51.598;7.668;2022-11-20T02:59:36;100567.56;;;5.33;47.77
29383;BME280;16365;51.598;7.668;2022-11-20T03:02:02;100569.72;;;5.36;47.53
29383;BME280;16365;51.598;7.668;2022-11-20T03:04:29;100554.56;;;5.39;47.98
29383;BME280;16365;51.598;7.668;2022-11-20T03:06:55;100554.81;;;5.43;47.67
29383;BME280;16365;51.598;7.668;2022-11-20T03:09:22;100549.81;;;5.45;47.87
29383;BME280;16365;51.598;7.668;2022-11-20T03:11:49;100553.09;;;5.47;47.80
29383;BME280;16365;51.598;7.668;2022-11-20T03:14:15;100550.84;;;5.49;47.95
29383;BME280;16365;51.598;7.668;2022-11-20T03:16:42;100546.97;;;5.50;47.73
29383;BME280;16365;51.598;7.668;2022-11-20T03:19:08;100545.88;;;5.51;47.50
29383;BME280;16365;51.598;7.668;2022-11-20T03:21:35;100536.53;;;5.52;47.84
29383;BME280;16365;51.598;7.668;2022-11-20T03:24:02;100535.72;;;5.51;47.73
29383;BME280;16365;51.598;7.668;2022-11-20T03:26:29;100540.09;;;5.52;47.78
29383;BME280;16365;51.598;7.668;2022-11-20T03:28:57;100539.28;;;5.52;47.42
29383;BME280;16365;51.598;7.668;2022-11-20T03:31:27;100538.16;;;5.53;47.71
29383;BME280;16365;51.598;7.668;2022-11-20T03:33:54;100523.28;;;5.54;47.93
29383;BME280;16365;51.598;7.668;2022-11-20T03:36:22;100526.84;;;5.54;47.71
29383;BME280;16365;51.598;7.668;2022-11-20T03:38:49;100531.22;;;5.55;48.26
29383;BME280;16365;51.598;7.668;2022-11-20T03:41:18;100525.44;;;5.57;48.13
29383;BME280;16365;51.598;7.668;2022-11-20T03:43:52;100529.81;;;5.58;48.25
29383;BME280;16365;51.598;7.668;2022-11-20T03:46:20;100527.28;;;5.61;47.81
29383;BME280;16365;51.598;7.668;2022-11-20T03:48:47;100524.75;;;5.65;47.90
29383;BME280;16365;51.598;7.668;2022-11-20T03:51:20;100518.97;;;5.66;47.96
29383;BME280;16365;51.598;7.668;2022-11-20T03:53:49;100524.16;;;5.68;47.85
29383;BME280;16365;51.598;7.668;2022-11-20T03:56:17;100517.53;;;5.69;48.16
29383;BME280;16365;51.598;7.668;2022-11-20T03:58:44;100519.69;;;5.72;47.92
29383;BME280;16365;51.598;7.668;2022-11-20T04:01:14;100520.19;;;5.74;47.44
29383;BME280;16365;51.598;7.668;2022-11-20T04:03:43;100524.06;;;5.73;47.70
29383;BME280;16365;51.598;7.668;2022-11-20T04:06:12;100519.69;;;5.72;47.51
29383;BME280;16365;51.598;7.668;2022-11-20T04:08:39;100521.31;;;5.73;47.81
29383;BME280;16365;51.598;7.668;2022-11-20T04:11:10;100525.19;;;5.72;48.10
29383;BME280;16365;51.598;7.668;2022-11-20T04:13:37;100521.31;;;5.73;48.23
29383;BME280;16365;51.598;7.668;2022-11-20T04:16:05;100523.47;;;5.76;48.10
29383;BME280;16365;51.598;7.668;2022-11-20T04:18:33;100522.03;;;5.79;48.38
29383;BME280;16365;51.598;7.668;2022-11-20T04:21:00;100523.41;;;5.81;47.69
29383;BME280;16365;51.598;7.668;2022-11-20T04:23:27;100517.59;;;5.83;48.24
29383;BME280;16365;51.598;7.668;2022-11-20T04:25:54;100509.56;;;5.86;48.00
29383;BME280;16365;51.598;7.668;2022-11-20T04:28:20;100511.69;;;5.89;48.34
29383;BME280;16365;51.598;7.668;2022-11-20T04:30:47;100512.53;;;5.90;48.58
29383;BME280;16365;51.598;7.668;2022-11-20T04:33:13;100508.38;;;5.92;47.79
29383;BME280;16365;51.598;7.668;2022-11-20T04:35:40;100507.25;;;5.93;48.18
29383;BME280;16365;51.598;7.668;2022-11-20T04:38:06;100505.84;;;5.96;48.19
29383;BME280;16365;51.598;7.668;2022-11-20T04:40:33;100499.72;;;5.99;48.08
29383;BME280;16365;51.598;7.668;2022-11-20T04:42:59;100495.63;;;5.97;48.03
29383;BME280;16365;51.598;7.668;2022-11-20T04:45:26;100496.97;;;5.99;47.77
29383;BME280;16365;51.598;7.668;2022-11-20T04:47:52;100496.97;;;5.99;48.05
29383;BME280;16365;51.598;7.668;2022-11-20T04:50:19;100496.16;;;5.99;48.14
29383;BME280;16365;51.598;7.668;2022-11-20T04:52:45;100496.16;;;5.99;48.38
29383;BME280;16365;51.598;7.668;2022-11-20T04:55:11;100485.13;;;5.99;48.45
29383;BME280;16365;51.598;7.668;2022-11-20T04:57:38;100489.00;;;5.98;47.85
29383;BME280;16365;51.598;7.668;2022-11-20T05:00:05;100502.78;;;5.98;47.65
29383;BME280;16365;51.598;7.668;2022-11-20T05:02:32;100497.59;;;5.96;47.79
29383;BME280;16365;51.598;7.668;2022-11-20T05:04:58;100502.56;;;5.94;47.96
29383;BME280;16365;51.598;7.668;2022-11-20T05:07:24;100496.53;;;5.92;47.96
29383;BME280;16365;51.598;7.668;2022-11-20T05:09:51;100493.53;;;5.88;47.63
29383;BME280;16365;51.598;7.668;2022-11-20T05:12:19;100498.22;;;5.88;47.79
29383;BME280;16365;51.598;7.668;2022-11-20T05:14:45;100498.53;;;5.86;48.00
29383;BME280;16365;51.598;7.668;2022-11-20T05:17:12;100501.88;;;5.83;47.84
29383;BME280;16365;51.598;7.668;2022-11-20T05:19:38;100504.63;;;5.83;48.11
29383;BME280;16365;51.598;7.668;2022-11-20T05:22:05;100505.75;;;5.82;48.54
29383;BME280;16365;51.598;7.668;2022-11-20T05:24:31;100507.38;;;5.83;49.10
29383;BME280;16365;51.598;7.668;2022-11-20T05:27:00;100498.53;;;5.86;48.60
29383;BME280;16365;51.598;7.668;2022-11-20T05:29:26;100497.91;;;5.89;48.69
29383;BME280;16365;51.598;7.668;2022-11-20T05:31:52;100488.56;;;5.90;48.54
29383;BME280;16365;51.598;7.668;2022-11-20T05:34:19;100494.31;;;5.94;48.46
29383;BME280;16365;51.598;7.668;2022-11-20T05:36:45;100486.56;;;5.96;48.39
29383;BME280;16365;51.598;7.668;2022-11-20T05:39:12;100489.00;;;5.98;48.47
29383;BME280;16365;51.598;7.668;2022-11-20T05:41:39;100490.94;;;5.97;48.10
29383;BME280;16365;51.598;7.668;2022-11-20T05:44:05;100501.16;;;5.97;48.30
29383;BME280;16365;51.598;7.668;2022-11-20T05:46:32;100495.09;;;5.95;48.22
29383;BME280;16365;51.598;7.668;2022-11-20T05:48:58;100493.47;;;5.93;48.49
29383;BME280;16365;51.598;7.668;2022-11-20T05:51:26;100492.66;;;5.93;48.61
29383;BME280;16365;51.598;7.668;2022-11-20T05:53:52;100489.66;;;5.89;48.38
29383;BME280;16365;51.598;7.668;2022-11-20T05:56:20;100486.41;;;5.87;48.24
29383;BME280;16365;51.598;7.668;2022-11-20T05:58:48;100476.81;;;5.85;48.54
29383;BME280;16365;51.598;7.668;2022-11-20T06:01:21;100484.56;;;5.83;48.54
29383;BME280;16365;51.598;7.668;2022-11-20T06:03:48;100482.41;;;5.80;48.51
29383;BME280;16365;51.598;7.668;2022-11-20T06:06:17;100489.03;;;5.79;48.58
29383;BME280;16365;51.598;7.668;2022-11-20T06:08:45;100480.28;;;5.77;48.50
29383;BME280;16365;51.598;7.668;2022-11-20T06:11:13;100479.47;;;5.76;48.66
29383;BME280;16365;51.598;7.668;2022-11-20T06:13:41;100480.56;;;5.75;49.00
29383;BME280;16365;51.598;7.668;2022-11-20T06:16:09;100477.53;;;5.77;48.70
29383;BME280;16365;51.598;7.668;2022-11-20T06:18:36;100470.91;;;5.78;48.54
29383;BME280;16365;51.598;7.668;2022-11-20T06:21:10;100476.72;;;5.76;48.81
29383;BME280;16365;51.598;7.668;2022-11-20T06:23:38;100481.09;;;5.77;48.82
29383;BME280;16365;51.598;7.668;2022-11-20T06:26:06;100479.97;;;5.78;48.90
29383;BME280;16365;51.598;7.668;2022-11-20T06:28:33;100483.53;;;5.79;49.05
29383;BME280;16365;51.598;7.668;2022-11-20T06:31:00;100481.59;;;5.79;48.78
29383;BME280;16365;51.598;7.668;2022-11-20T06:33:27;100475.28;;;5.79;48.78
29383;BME280;16365;51.598;7.668;2022-11-20T06:35:58;100478.84;;;5.79;48.93
29383;BME280;16365;51.598;7.668;2022-11-20T06:38:31;100483.25;;;5.80;48.97
29383;BME280;16365;51.598;7.668;2022-11-20T06:40:58;100487.91;;;5.80;48.97
29383;BME280;16365;51.598;7.668;2022-11-20T06:43:24;100495.66;;;5.78;49.25
29383;BME280;16365;51.598;7.668;2022-11-20T06:45:52;100497.28;;;5.79;49.06
29383;BME280;16365;51.598;7.668;2022-11-20T06:48:19;100499.22;;;5.78;48.91
29383;BME280;16365;51.598;7.668;2022-11-20T06:50:46;100498.09;;;5.79;49.28
29383;BME280;16365;51.598;7.668;2022-11-20T06:53:13;100507.47;;;5.78;48.75
29383;BME280;16365;51.598;7.668;2022-11-20T06:55:47;100510.53;;;5.77;48.91
29383;BME280;16365;51.598;7.668;2022-11-20T06:58:17;100512.16;;;5.78;48.94
29383;BME280;16365;51.598;7.668;2022-11-20T07:00:45;100514.09;;;5.77;49.03
29383;BME280;16365;51.598;7.668;2022-11-20T07:03:12;100518.47;;;5.78;49.00
29383;BME280;16365;51.598;7.668;2022-11-20T07:05:38;100523.97;;;5.78;49.10
29383;BME280;16365;51.598;7.668;2022-11-20T07:08:05;100500.84;;;5.79;49.54
29383;BME280;16365;51.598;7.668;2022-11-20T07:10:33;100502.19;;;5.82;49.51
29383;BME280;16365;51.598;7.668;2022-11-20T07:12:59;100503.81;;;5.83;49.40
29383;BME280;16365;51.598;7.668;2022-11-20T07:15:26;100505.44;;;5.84;49.49
29383;BME280;16365;51.598;7.668;2022-11-20T07:17:52;100504.88;;;5.87;49.07
29383;BME280;16365;51.598;7.668;2022-11-20T07:20:19;100513.63;;;5.89;48.96
29383;BME280;16365;51.598;7.668;2022-11-20T07:22:46;100516.09;;;5.90;49.46
29383;BME280;16365;51.598;7.668;2022-11-20T07:25:18;100521.31;;;5.92;49.19
29383;BME280;16365;51.598;7.668;2022-11-20T07:27:45;100520.50;;;5.91;49.06
29383;BME280;16365;51.598;7.668;2022-11-20T07:30:12;100516.91;;;5.91;49.07
29383;BME280;16365;51.598;7.668;2022-11-20T07:32:41;100523.81;;;5.88;49.09
29383;BME280;16365;51.598;7.668;2022-11-20T07:35:09;100520.56;;;5.86;49.26
29383;BME280;16365;51.598;7.668;2022-11-20T07:37:35;100529.09;;;5.85;49.25
29383;BME280;16365;51.598;7.668;2022-11-20T07:40:02;100522.28;;;5.82;48.62
29383;BME280;16365;51.598;7.668;2022-11-20T07:42:29;100533.59;;;5.81;49.07
29383;BME280;16365;51.598;7.668;2022-11-20T07:44:55;100525.91;;;5.78;48.73
29383;BME280;16365;51.598;7.668;2022-11-20T07:47:21;100532.53;;;5.77;48.94
29383;BME280;16365;51.598;7.668;2022-11-20T07:49:48;100521.00;;;5.75;48.97
29383;BME280;16365;51.598;7.668;2022-11-20T07:52:14;100525.69;;;5.74;49.52
29383;BME280;16365;51.598;7.668;2022-11-20T07:54:41;100519.38;;;5.74;49.52
29383;BME280;16365;51.598;7.668;2022-11-20T07:57:07;100519.69;;;5.72;49.43
29383;BME280;16365;51.598;7.668;2022-11-20T07:59:34;100526.00;;;5.73;49.56
29383;BME280;16365;51.598;7.668;2022-11-20T08:02:00;100528.75;;;5.73;49.27
29383;BME280;16365;51.598;7.668;2022-11-20T08:04:29;100533.94;;;5.74;49.44
29383;BME280;16365;51.598;7.668;2022-11-20T08:06:55;100536.69;;;5.74;49.50
29383;BME280;16365;51.598;7.668;2022-11-20T08:09:22;100530.91;;;5.76;49.74
29383;BME280;16365;51.598;7.668;2022-11-20T08:11:49;100537.75;;;5.78;49.70
29383;BME280;16365;51.598;7.668;2022-11-20T08:14:34;100531.66;;;5.81;49.49
29383;BME280;16365;51.598;7.668;2022-11-20T08:17:00;100540.94;;;5.85;49.83
29383;BME280;16365;51.598;7.668;2022-11-20T08:19:26;100535.13;;;5.87;49.55
29383;BME280;16365;51.598;7.668;2022-11-20T08:21:54;100534.53;;;5.90;49.92
29383;BME280;16365;51.598;7.668;2022-11-20T08:24:21;100518.56;;;5.92;49.64
29383;BME280;16365;51.598;7.668;2022-11-20T08:26:50;100519.88;;;5.95;49.87
29383;BME280;16365;51.598;7.668;2022-11-20T08:29:17;100525.81;;;6.02;49.83
29383;BME280;16365;51.598;7.668;2022-11-20T08:31:45;100525.22;;;6.05;50.12
29383;BME280;16365;51.598;7.668;2022-11-20T08:34:11;100516.06;;;6.09;49.95
29383;BME280;16365;51.598;7.668;2022-11-20T08:36:44;100511.56;;;6.13;49.96
29383;BME280;16365;51.598;7.668;2022-11-20T08:39:12;100515.88;;;6.20;50.22
29383;BME280;16365;51.598;7.668;2022-11-20T08:41:38;100517.72;;;6.24;49.99
29383;BME280;16365;51.598;7.668;2022-11-20T08:44:06;100518.13;;;6.31;50.04
29383;BME280;16365;51.598;7.668;2022-11-20T08:46:38;100514.13;;;6.37;49.80
29383;BME280;16365;51.598;7.668;2022-11-20T08:49:06;100516.50;;;6.44;50.15
29383;BME280;16365;51.598;7.668;2022-11-20T08:51:33;100514.97;;;6.52;50.19
29383;BME280;16365;51.598;7.668;2022-11-20T08:53:59;100509.06;;;6.58;49.90
29383;BME280;16365;51.598;7.668;2022-11-20T08:56:26;100509.47;;;6.65;50.13
29383;BME280;16365;51.598;7.668;2022-11-20T08:58:54;100506.31;;;6.72;50.34
29383;BME280;16365;51.598;7.668;2022-11-20T09:01:40;100510.28;;;6.80;50.07
29383;BME280;16365;51.598;7.668;2022-11-20T09:04:07;100509.03;;;6.86;50.00
29383;BME280;16365;51.598;7.668;2022-11-20T09:06:33;100511.41;;;6.92;50.04
29383;BME280;16365;51.598;7.668;2022-11-20T09:09:01;100512.91;;;6.99;50.21
29383;BME280;16365;51.598;7.668;2022-11-20T09:11:44;100505.88;;;7.06;50.24
29383;BME280;16365;51.598;7.668;2022-11-20T09:14:10;100512.88;;;7.12;50.12
29383;BME280;16365;51.598;7.668;2022-11-20T09:16:36;100511.31;;;7.20;49.93
29383;BME280;16365;51.598;7.668;2022-11-20T09:19:03;100502.63;;;7.27;50.11
29383;BME280;16365;51.598;7.668;2022-11-20T09:21:49;100503.81;;;7.34;50.21
29383;BME280;16365;51.598;7.668;2022-11-20T09:24:15;100510.56;;;7.42;50.24
29383;BME280;16365;51.598;7.668;2022-11-20T09:26:42;100512.88;;;7.48;49.66
29383;BME280;16365;51.598;7.668;2022-11-20T09:29:08;100505.81;;;7.56;49.92
29383;BME280;16365;51.598;7.668;2022-11-20T09:31:35;100504.22;;;7.64;49.61
29383;BME280;16365;51.598;7.668;2022-11-20T09:34:02;100498.28;;;7.70;49.58
29383;BME280;16365;51.598;7.668;2022-11-20T09:36:28;100491.50;;;7.77;49.46
29383;BME280;16365;51.598;7.668;2022-11-20T09:38:55;100499.34;;;7.83;49.96
29383;BME280;16365;51.598;7.668;2022-11-20T09:44:35;100487.72;;;7.95;49.68
29383;BME280;16365;51.598;7.668;2022-11-20T09:50:41;100482.59;;;8.11;49.94
29383;BME280;16365;51.598;7.668;2022-11-20T09:53:42;100479.41;;;8.17;49.81
29383;BME280;16365;51.598;7.668;2022-11-20T09:56:20;100472.28;;;8.25;48.99
29383;BME280;16365;51.598;7.668;2022-11-20T09:58:50;100471.84;;;8.32;49.09
29383;BME280;16365;51.598;7.668;2022-11-20T10:01:23;100480.00;;;8.37;49.33
29383;BME280;16365;51.598;7.668;2022-11-20T10:04:02;100481.81;;;8.41;48.93
29383;BME280;16365;51.598;7.668;2022-11-20T10:07:02;100473.38;;;8.46;49.02
29383;BME280;16365;51.598;7.668;2022-11-20T10:09:53;100474.53;;;8.54;48.94
29383;BME280;16365;51.598;7.668;2022-11-20T10:15:25;100462.88;;;8.66;48.80
29383;BME280;16365;51.598;7.668;2022-11-20T10:20:46;100459.00;;;8.75;48.50
29383;BME280;16365;51.598;7.668;2022-11-20T10:26:35;100455.25;;;8.89;47.69
29383;BME280;16365;51.598;7.668;2022-11-20T10:29:19;100451.22;;;8.95;47.30
29383;BME280;16365;51.598;7.668;2022-11-20T10:31:54;100450.72;;;9.01;48.01
29383;BME280;16365;51.598;7.668;2022-11-20T10:34:50;100452.88;;;9.05;47.91
29383;BME280;16365;51.598;7.668;2022-11-20T10:37:23;100453.19;;;9.12;47.94
29383;BME280;16365;51.598;7.668;2022-11-20T10:40:18;100453.69;;;9.14;47.14
29383;BME280;16365;51.598;7.668;2022-11-20T10:42:57;100459.19;;;9.22;46.81
29383;BME280;16365;51.598;7.668;2022-11-20T10:47:54;100428.78;;;9.31;47.47
29383;BME280;16365;51.598;7.668;2022-11-20T10:50:22;100443.25;;;9.37;47.51
29383;BME280;16365;51.598;7.668;2022-11-20T10:56:17;100437.38;;;9.47;46.34
29383;BME280;16365;51.598;7.668;2022-11-20T10:59:04;100436.91;;;9.53;46.47
29383;BME280;16365;51.598;7.668;2022-11-20T11:01:40;100439.16;;;9.60;46.13
29383;BME280;16365;51.598;7.668;2022-11-20T11:07:11;100432.47;;;9.70;46.51
29383;BME280;16365;51.598;7.668;2022-11-20T11:09:43;100414.41;;;9.72;46.24
29383;BME280;16365;51.598;7.668;2022-11-20T11:12:10;100411.28;;;9.74;46.46
29383;BME280;16365;51.598;7.668;2022-11-20T11:14:52;100410.47;;;9.73;45.23
29383;BME280;16365;51.598;7.668;2022-11-20T11:17:32;100410.47;;;9.73;45.65
29383;BME280;16365;51.598;7.668;2022-11-20T11:20:06;100410.66;;;9.77;46.06
29383;BME280;16365;51.598;7.668;2022-11-20T11:22:34;100413.53;;;9.81;46.56
29383;BME280;16365;51.598;7.668;2022-11-20T11:25:19;100413.53;;;9.81;45.86
29383;BME280;16365;51.598;7.668;2022-11-20T11:27:47;100408.97;;;9.85;46.40
29383;BME280;16365;51.598;7.668;2022-11-20T11:30:16;100407.00;;;9.85;45.89
29383;BME280;16365;51.598;7.668;2022-11-20T11:32:43;100389.59;;;9.85;45.61
29383;BME280;16365;51.598;7.668;2022-11-20T11:35:48;100394.97;;;9.81;45.09
29383;BME280;16365;51.598;7.668;2022-11-20T11:38:21;100396.63;;;9.82;45.68
29383;BME280;16365;51.598;7.668;2022-11-20T11:40:53;100394.97;;;9.81;45.18
29383;BME280;16365;51.598;7.668;2022-11-20T11:43:23;100391.72;;;9.79;45.87
29383;BME280;16365;51.598;7.668;2022-11-20T11:46:28;100382.81;;;9.73;44.94
29383;BME280;16365;51.598;7.668;2022-11-20T11:48:58;100383.94;;;9.72;45.87
29383;BME280;16365;51.598;7.668;2022-11-20T11:51:34;100377.44;;;9.68;45.70
29383;BME280;16365;51.598;7.668;2022-11-20T11:54:03;100375.81;;;9.67;46.06
29383;BME280;16365;51.598;7.668;2022-11-20T11:56:34;100387.72;;;9.68;46.13
29383;BME280;16365;51.598;7.668;2022-11-20T11:59:06;100381.34;;;9.67;46.47
29383;BME280;16365;51.598;7.668;2022-11-20T12:01:44;100375.47;;;9.69;46.21
29383;BME280;16365;51.598;7.668;2022-11-20T12:04:46;100374.50;;;9.73;45.89
29383;BME280;16365;51.598;7.668;2022-11-20T12:10:20;100358.13;;;9.89;46.06
29383;BME280;16365;51.598;7.668;2022-11-20T12:12:55;100355.69;;;9.96;45.54
29383;BME280;16365;51.598;7.668;2022-11-20T12:15:30;100359.53;;;10.04;46.55
29383;BME280;16365;51.598;7.668;2022-11-20T12:17:57;100353.50;;;10.11;46.52
29383;BME280;16365;51.598;7.668;2022-11-20T12:20:29;100355.25;;;10.15;45.59
29383;BME280;16365;51.598;7.668;2022-11-20T12:23:07;100351.81;;;10.18;45.11
29383;BME280;16365;51.598;7.668;2022-11-20T12:25:40;100349.38;;;10.25;45.15
29383;BME280;16365;51.598;7.668;2022-11-20T12:39:34;100310.38;;;10.31;44.32
29383;BME280;16365;51.598;7.668;2022-11-20T12:42:23;100317.56;;;10.32;43.94
29383;BME280;16365;51.598;7.668;2022-11-20T12:53:58;100315.03;;;10.39;44.62
29383;BME280;16365;51.598;7.668;2022-11-20T12:56:43;100307.69;;;10.43;44.92
29383;BME280;16365;51.598;7.668;2022-11-20T12:59:46;100295.13;;;10.45;44.42
29383;BME280;16365;51.598;7.668;2022-11-20T13:02:41;100293.63;;;10.48;44.41
29383;BME280;16365;51.598;7.668;2022-11-20T13:05:24;100284.66;;;10.51;44.34
29383;BME280;16365;51.598;7.668;2022-11-20T13:07:54;100282.03;;;10.54;44.93
29383;BME280;16365;51.598;7.668;2022-11-20T13:10:31;100281.22;;;10.54;44.55
29383;BME280;16365;51.598;7.668;2022-11-20T13:13:07;100278.44;;;10.54;44.44
29383;BME280;16365;51.598;7.668;2022-11-20T13:15:52;100270.44;;;10.52;44.03
29383;BME280;16365;51.598;7.668;2022-11-20T13:18:21;100263.75;;;10.53;44.86
29383;BME280;16365;51.598;7.668;2022-11-20T13:20:47;100256.59;;;10.52;44.56
29383;BME280;16365;51.598;7.668;2022-11-20T13:23:28;100267.53;;;10.49;43.62
29383;BME280;16365;51.598;7.668;2022-11-20T13:26:13;100254.81;;;10.48;44.00
29383;BME280;16365;51.598;7.668;2022-11-20T13:28:40;100244.22;;;10.50;45.25
29383;BME280;16365;51.598;7.668;2022-11-20T13:31:28;100247.31;;;10.48;43.85
29383;BME280;16365;51.598;7.668;2022-11-20T13:33:56;100238.34;;;10.51;44.72
29383;BME280;16365;51.598;7.668;2022-11-20T13:36:26;100239.50;;;10.50;44.26
29383;BME280;16365;51.598;7.668;2022-11-20T13:38:55;100223.19;;;10.49;44.34
29383;BME280;16365;51.598;7.668;2022-11-20T13:41:35;100231.03;;;10.47;44.00
29383;BME280;16365;51.598;7.668;2022-11-20T13:45:00;100222.25;;;10.45;43.61
29383;BME280;16365;51.598;7.668;2022-11-20T13:47:01;100220.75;;;10.47;44.39
29383;BME280;16365;51.598;7.668;2022-11-20T13:49:37;100213.47;;;10.43;43.83
29383;BME280;16365;51.598;7.668;2022-11-20T13:57:37;100209.53;;;10.44;44.83
29383;BME280;16365;51.598;7.668;2022-11-20T14:00:17;100200.97;;;10.37;44.20
29383;BME280;16365;51.598;7.668;2022-11-20T14:05:26;100194.03;;;10.31;45.15
29383;BME280;16365;51.598;7.668;2022-11-20T14:07:53;100188.69;;;10.25;44.79
29383;BME280;16365;51.598;7.668;2022-11-20T14:10:23;100192.44;;;10.21;45.31
29383;BME280;16365;51.598;7.668;2022-11-20T14:12:57;100180.41;;;10.17;45.76
29383;BME280;16365;51.598;7.668;2022-11-20T14:15:29;100171.50;;;10.11;44.87
29383;BME280;16365;51.598;7.668;2022-11-20T14:17:57;100171.00;;;10.09;45.79